sensor_id;sensor_type;location;lat;lon;timestamp;P1;durP1;ratioP1;P2;durP2;ratioP2
21430;SDS011;10876;49.038;10.608;2023-05-10T00:00:20;8.80;;;5.65;;
21430;SDS011;10876;49.038;10.608;2023-05-10T00:02:49;9.05;;;6.07;;
21430;SDS011;10876;49.038;10.608;2023-05-10T00:05:16;8.75;;;6.32;;
21430;SDS011;10876;49.038;10.608;2023-05-10T00:07:43;9.52;;;6.35;;
21430;SDS011;10876;49.038;10.608;2023-05-10T00:10:10;12.75;;;7.00;;
21430;SDS011;10876;49.038;10.608;2023-05-10T00:12:39;10.40;;;6.60;;
21430;SDS011;10876;49.038;10.608;2023-05-10T00:15:07;11.68;;;7.20;;
21430;SDS011;10876;49.038;10.608;2023-05-10T00:17:35;12.38;;;7.18;;
21430;SDS011;10876;49.038;10.608;2023-05-10T00:20:05;9.93;;;6.72;;
21430;SDS011;10876;49.038;10.608;2023-05-10T00:22:40;9.75;;;6.60;;
21430;SDS011;10876;49.038;10.608;2023-05-10T00:25:14;10.02;;;6.85;;
21430;SDS011;10876;49.038;10.608;2023-05-10T00:27:47;10.05;;;6.35;;
21430;SDS011;10876;49.038;10.608;2023-05-10T00:30:17;8.10;;;5.90;;
21430;SDS011;10876;49.038;10.608;2023-05-10T00:32:53;10.43;;;6.10;;
21430;SDS011;10876;49.038;10.608;2023-05-10T00:35:21;9.13;;;6.10;;
21430;SDS011;10876;49.038;10.608;2023-05-10T00:37:53;8.77;;;6.13;;
21430;SDS011;10876;49.038;10.608;2023-05-10T00:40:22;9.82;;;5.78;;
21430;SDS011;10876;49.038;10.608;2023-05-10T00:42:55;8.43;;;6.07;;
21430;SDS011;10876;49.038;10.608;2023-05-10T00:45:22;10.02;;;5.68;;
21430;SDS011;10876;49.038;10.608;2023-05-10T00:47:50;8.52;;;6.20;;
21430;SDS011;10876;49.038;10.608;2023-05-10T00:50:20;8.52;;;5.75;;
21430;SDS011;10876;49.038;10.608;2023-05-10T00:52:47;9.35;;;5.95;;
21430;SDS011;10876;49.038;10.608;2023-05-10T00:55:14;9.27;;;5.88;;
21430;SDS011;10876;49.038;10.608;2023-05-10T00:57:42;9.77;;;6.15;;
21430;SDS011;10876;49.038;10.608;2023-05-10T01:00:11;10.27;;;6.40;;
21430;SDS011;10876;49.038;10.608;2023-05-10T01:02:50;12.10;;;6.10;;
21430;SDS011;10876;49.038;10.608;2023-05-10T01:05:36;10.98;;;6.10;;
21430;SDS011;10876;49.038;10.608;2023-05-10T01:08:07;8.15;;;5.85;;
21430;SDS011;10876;49.038;10.608;2023-05-10T01:10:35;10.13;;;6.28;;
21430;SDS011;10876;49.038;10.608;2023-05-10T01:13:03;9.45;;;5.88;;
21430;SDS011;10876;49.038;10.608;2023-05-10T01:44:17;9.70;;;6.07;;
21430;SDS011;10876;49.038;10.608;2023-05-10T01:46:52;5.78;;;4.13;;
21430;SDS011;10876;49.038;10.608;2023-05-10T01:49:25;2.67;;;2.22;;
21430;SDS011;10876;49.038;10.608;2023-05-10T01:51:57;3.03;;;1.67;;
21430;SDS011;10876;49.038;10.608;2023-05-10T01:54:28;2.13;;;1.60;;
21430;SDS011;10876;49.038;10.608;2023-05-10T01:56:57;1.52;;;1.30;;
21430;SDS011;10876;49.038;10.608;2023-05-10T01:59:31;1.58;;;1.17;;
21430;SDS011;10876;49.038;10.608;2023-05-10T02:02:04;1.00;;;0.90;;
21430;SDS011;10876;49.038;10.608;2023-05-10T02:04:32;0.93;;;0.70;;
21430;SDS011;10876;49.038;10.608;2023-05-10T02:07:03;1.00;;;0.90;;
21430;SDS011;10876;49.038;10.608;2023-05-10T02:09:32;1.55;;;0.60;;
21430;SDS011;10876;49.038;10.608;2023-05-10T02:12:00;0.50;;;0.50;;
21430;SDS011;10876;49.038;10.608;2023-05-10T02:14:28;0.50;;;0.50;;
21430;SDS011;10876;49.038;10.608;2023-05-10T02:16:58;0.90;;;0.50;;
21430;SDS011;10876;49.038;10.608;2023-05-10T02:19:28;0.93;;;0.73;;
21430;SDS011;10876;49.038;10.608;2023-05-10T02:21:56;0.80;;;0.70;;
21430;SDS011;10876;49.038;10.608;2023-05-10T02:24:25;0.50;;;0.50;;
21430;SDS011;10876;49.038;10.608;2023-05-10T02:26:53;0.60;;;0.60;;
21430;SDS011;10876;49.038;10.608;2023-05-10T02:29:22;0.95;;;0.75;;
21430;SDS011;10876;49.038;10.608;2023-05-10T02:31:52;0.55;;;0.55;;
21430;SDS011;10876;49.038;10.608;2023-05-10T02:34:20;1.13;;;0.70;;
21430;SDS011;10876;49.038;10.608;2023-05-10T02:36:48;0.60;;;0.60;;
21430;SDS011;10876;49.038;10.608;2023-05-10T02:39:15;0.70;;;0.70;;
21430;SDS011;10876;49.038;10.608;2023-05-10T02:41:45;0.63;;;0.63;;
21430;SDS011;10876;49.038;10.608;2023-05-10T02:44:14;0.50;;;0.50;;
21430;SDS011;10876;49.038;10.608;2023-05-10T02:46:43;0.70;;;0.60;;
21430;SDS011;10876;49.038;10.608;2023-05-10T02:49:12;0.65;;;0.65;;
21430;SDS011;10876;49.038;10.608;2023-05-10T02:51:40;0.70;;;0.70;;
21430;SDS011;10876;49.038;10.608;2023-05-10T02:54:09;0.70;;;0.70;;
21430;SDS011;10876;49.038;10.608;2023-05-10T02:56:40;0.70;;;0.70;;
21430;SDS011;10876;49.038;10.608;2023-05-10T02:59:13;0.60;;;0.60;;
21430;SDS011;10876;49.038;10.608;2023-05-10T03:01:40;0.60;;;0.60;;
21430;SDS011;10876;49.038;10.608;2023-05-10T03:04:07;0.70;;;0.70;;
21430;SDS011;10876;49.038;10.608;2023-05-10T03:06:35;0.70;;;0.70;;
21430;SDS011;10876;49.038;10.608;2023-05-10T03:09:02;0.60;;;0.60;;
21430;SDS011;10876;49.038;10.608;2023-05-10T03:11:32;0.85;;;0.70;;
21430;SDS011;10876;49.038;10.608;2023-05-10T03:14:13;1.85;;;0.70;;
21430;SDS011;10876;49.038;10.608;2023-05-10T03:16:50;0.55;;;0.55;;
21430;SDS011;10876;49.038;10.608;2023-05-10T03:19:24;0.70;;;0.70;;
21430;SDS011;10876;49.038;10.608;2023-05-10T03:21:55;1.00;;;0.75;;
21430;SDS011;10876;49.038;10.608;2023-05-10T03:24:26;0.93;;;0.70;;
21430;SDS011;10876;49.038;10.608;2023-05-10T03:26:54;1.00;;;0.60;;
21430;SDS011;10876;49.038;10.608;2023-05-10T03:29:24;1.00;;;0.70;;
21430;SDS011;10876;49.038;10.608;2023-05-10T03:31:52;1.08;;;0.80;;
21430;SDS011;10876;49.038;10.608;2023-05-10T03:34:23;1.02;;;0.80;;
21430;SDS011;10876;49.038;10.608;2023-05-10T03:36:50;1.33;;;0.90;;
21430;SDS011;10876;49.038;10.608;2023-05-10T03:39:18;2.15;;;1.05;;
21430;SDS011;10876;49.038;10.608;2023-05-10T03:41:46;1.08;;;0.98;;
21430;SDS011;10876;49.038;10.608;2023-05-10T03:44:13;1.05;;;1.00;;
21430;SDS011;10876;49.038;10.608;2023-05-10T03:46:39;1.20;;;1.10;;
21430;SDS011;10876;49.038;10.608;2023-05-10T03:49:06;1.15;;;0.90;;
21430;SDS011;10876;49.038;10.608;2023-05-10T03:51:32;1.10;;;0.95;;
21430;SDS011;10876;49.038;10.608;2023-05-10T03:53:59;1.40;;;1.20;;
21430;SDS011;10876;49.038;10.608;2023-05-10T03:56:27;2.88;;;1.33;;
21430;SDS011;10876;49.038;10.608;2023-05-10T03:58:54;1.40;;;1.10;;
21430;SDS011;10876;49.038;10.608;2023-05-10T04:01:20;1.20;;;1.10;;
21430;SDS011;10876;49.038;10.608;2023-05-10T04:03:47;1.77;;;1.20;;
21430;SDS011;10876;49.038;10.608;2023-05-10T04:06:14;1.25;;;1.15;;
21430;SDS011;10876;49.038;10.608;2023-05-10T04:08:40;1.17;;;1.08;;
21430;SDS011;10876;49.038;10.608;2023-05-10T04:11:07;1.65;;;1.38;;
21430;SDS011;10876;49.038;10.608;2023-05-10T04:13:36;2.50;;;1.17;;
21430;SDS011;10876;49.038;10.608;2023-05-10T04:16:03;1.20;;;1.10;;
21430;SDS011;10876;49.038;10.608;2023-05-10T04:18:30;1.10;;;1.00;;
21430;SDS011;10876;49.038;10.608;2023-05-10T04:20:57;1.48;;;1.38;;
21430;SDS011;10876;49.038;10.608;2023-05-10T04:23:24;1.25;;;1.15;;
21430;SDS011;10876;49.038;10.608;2023-05-10T04:25:50;1.48;;;1.33;;
21430;SDS011;10876;49.038;10.608;2023-05-10T04:28:17;1.90;;;1.70;;
21430;SDS011;10876;49.038;10.608;2023-05-10T04:30:45;1.63;;;1.50;;
21430;SDS011;10876;49.038;10.608;2023-05-10T04:33:12;1.70;;;1.60;;
21430;SDS011;10876;49.038;10.608;2023-05-10T04:35:39;1.58;;;1.48;;
21430;SDS011;10876;49.038;10.608;2023-05-10T04:38:06;1.75;;;1.65;;
21430;SDS011;10876;49.038;10.608;2023-05-10T04:40:32;2.35;;;1.92;;
21430;SDS011;10876;49.038;10.608;2023-05-10T04:42:59;2.95;;;1.88;;
21430;SDS011;10876;49.038;10.608;2023-05-10T04:45:26;2.20;;;1.92;;
21430;SDS011;10876;49.038;10.608;2023-05-10T04:47:54;3.60;;;2.10;;
21430;SDS011;10876;49.038;10.608;2023-05-10T04:50:21;2.22;;;1.75;;
21430;SDS011;10876;49.038;10.608;2023-05-10T04:52:47;2.03;;;1.83;;
21430;SDS011;10876;49.038;10.608;2023-05-10T04:55:14;2.10;;;1.90;;
21430;SDS011;10876;49.038;10.608;2023-05-10T04:57:41;2.60;;;1.95;;
21430;SDS011;10876;49.038;10.608;2023-05-10T05:00:08;2.42;;;1.95;;
21430;SDS011;10876;49.038;10.608;2023-05-10T05:02:35;3.70;;;1.80;;
21430;SDS011;10876;49.038;10.608;2023-05-10T05:05:03;2.47;;;1.83;;
21430;SDS011;10876;49.038;10.608;2023-05-10T05:07:31;2.42;;;1.88;;
21430;SDS011;10876;49.038;10.608;2023-05-10T05:09:58;2.65;;;2.00;;
21430;SDS011;10876;49.038;10.608;2023-05-10T05:12:25;1.98;;;1.70;;
21430;SDS011;10876;49.038;10.608;2023-05-10T05:14:52;2.00;;;1.77;;
21430;SDS011;10876;49.038;10.608;2023-05-10T05:17:19;2.15;;;1.95;;
21430;SDS011;10876;49.038;10.608;2023-05-10T05:19:45;2.80;;;2.28;;
21430;SDS011;10876;49.038;10.608;2023-05-10T05:22:13;5.18;;;2.25;;
21430;SDS011;10876;49.038;10.608;2023-05-10T05:24:40;6.30;;;2.20;;
21430;SDS011;10876;49.038;10.608;2023-05-10T05:27:07;2.72;;;2.10;;
21430;SDS011;10876;49.038;10.608;2023-05-10T05:29:33;2.78;;;2.08;;
21430;SDS011;10876;49.038;10.608;2023-05-10T05:32:00;6.18;;;2.30;;
21430;SDS011;10876;49.038;10.608;2023-05-10T05:34:27;2.83;;;2.28;;
21430;SDS011;10876;49.038;10.608;2023-05-10T05:36:54;3.47;;;1.88;;
21430;SDS011;10876;49.038;10.608;2023-05-10T05:39:22;2.63;;;1.88;;
21430;SDS011;10876;49.038;10.608;2023-05-10T05:41:48;3.42;;;1.77;;
21430;SDS011;10876;49.038;10.608;2023-05-10T05:44:15;3.10;;;1.90;;
21430;SDS011;10876;49.038;10.608;2023-05-10T05:46:42;2.72;;;1.92;;
21430;SDS011;10876;49.038;10.608;2023-05-10T05:49:08;2.70;;;2.03;;
21430;SDS011;10876;49.038;10.608;2023-05-10T05:51:35;2.47;;;2.10;;
21430;SDS011;10876;49.038;10.608;2023-05-10T05:54:02;2.65;;;2.20;;
21430;SDS011;10876;49.038;10.608;2023-05-10T05:56:30;4.03;;;2.50;;
21430;SDS011;10876;49.038;10.608;2023-05-10T05:58:57;3.70;;;2.17;;
21430;SDS011;10876;49.038;10.608;2023-05-10T06:01:24;2.53;;;2.20;;
21430;SDS011;10876;49.038;10.608;2023-05-10T06:03:50;3.13;;;2.40;;
21430;SDS011;10876;49.038;10.608;2023-05-10T06:06:17;7.32;;;2.50;;
21430;SDS011;10876;49.038;10.608;2023-05-10T06:08:44;4.40;;;2.47;;
21430;SDS011;10876;49.038;10.608;2023-05-10T06:11:10;3.63;;;2.22;;
21430;SDS011;10876;49.038;10.608;2023-05-10T06:13:38;3.30;;;2.33;;
21430;SDS011;10876;49.038;10.608;2023-05-10T06:16:05;6.07;;;3.00;;
21430;SDS011;10876;49.038;10.608;2023-05-10T06:18:32;13.35;;;6.55;;
21430;SDS011;10876;49.038;10.608;2023-05-10T06:20:59;20.65;;;9.43;;
21430;SDS011;10876;49.038;10.608;2023-05-10T06:23:26;12.55;;;6.63;;
21430;SDS011;10876;49.038;10.608;2023-05-10T06:25:53;8.98;;;5.10;;
21430;SDS011;10876;49.038;10.608;2023-05-10T06:28:20;5.53;;;3.50;;
21430;SDS011;10876;49.038;10.608;2023-05-10T06:30:48;3.22;;;2.70;;
21430;SDS011;10876;49.038;10.608;2023-05-10T06:33:15;3.60;;;2.60;;
21430;SDS011;10876;49.038;10.608;2023-05-10T06:35:42;4.55;;;2.88;;
21430;SDS011;10876;49.038;10.608;2023-05-10T06:38:09;2.53;;;2.13;;
21430;SDS011;10876;49.038;10.608;2023-05-10T06:40:35;3.42;;;2.47;;
21430;SDS011;10876;49.038;10.608;2023-05-10T06:43:02;2.35;;;2.15;;
21430;SDS011;10876;49.038;10.608;2023-05-10T06:45:29;2.88;;;2.05;;
21430;SDS011;10876;49.038;10.608;2023-05-10T06:47:57;3.80;;;2.80;;
21430;SDS011;10876;49.038;10.608;2023-05-10T06:50:24;10.23;;;4.50;;
21430;SDS011;10876;49.038;10.608;2023-05-10T06:52:51;8.13;;;2.92;;
21430;SDS011;10876;49.038;10.608;2023-05-10T06:55:18;4.13;;;2.28;;
21430;SDS011;10876;49.038;10.608;2023-05-10T06:57:45;3.58;;;2.30;;
21430;SDS011;10876;49.038;10.608;2023-05-10T07:00:13;4.13;;;2.30;;
21430;SDS011;10876;49.038;10.608;2023-05-10T07:02:40;2.50;;;2.10;;
21430;SDS011;10876;49.038;10.608;2023-05-10T07:05:08;2.58;;;2.28;;
21430;SDS011;10876;49.038;10.608;2023-05-10T07:07:35;3.47;;;2.05;;
21430;SDS011;10876;49.038;10.608;2023-05-10T07:10:02;4.00;;;2.25;;
21430;SDS011;10876;49.038;10.608;2023-05-10T07:12:29;2.58;;;2.13;;
21430;SDS011;10876;49.038;10.608;2023-05-10T07:14:55;2.70;;;2.08;;
21430;SDS011;10876;49.038;10.608;2023-05-10T07:17:22;4.30;;;2.30;;
21430;SDS011;10876;49.038;10.608;2023-05-10T07:19:49;2.85;;;2.15;;
21430;SDS011;10876;49.038;10.608;2023-05-10T07:22:17;2.90;;;2.50;;
21430;SDS011;10876;49.038;10.608;2023-05-10T07:24:44;2.80;;;2.42;;
21430;SDS011;10876;49.038;10.608;2023-05-10T07:27:10;3.25;;;2.67;;
21430;SDS011;10876;49.038;10.608;2023-05-10T07:29:37;4.55;;;2.75;;
21430;SDS011;10876;49.038;10.608;2023-05-10T07:32:05;4.55;;;2.83;;
21430;SDS011;10876;49.038;10.608;2023-05-10T07:34:31;3.38;;;2.60;;
21430;SDS011;10876;49.038;10.608;2023-05-10T07:36:58;4.00;;;3.28;;
21430;SDS011;10876;49.038;10.608;2023-05-10T07:39:27;4.43;;;3.10;;
21430;SDS011;10876;49.038;10.608;2023-05-10T07:41:53;3.53;;;2.88;;
21430;SDS011;10876;49.038;10.608;2023-05-10T07:44:21;4.28;;;2.88;;
21430;SDS011;10876;49.038;10.608;2023-05-10T07:46:47;5.50;;;2.90;;
21430;SDS011;10876;49.038;10.608;2023-05-10T07:49:14;5.88;;;3.17;;
21430;SDS011;10876;49.038;10.608;2023-05-10T07:51:41;3.88;;;2.85;;
21430;SDS011;10876;49.038;10.608;2023-05-10T07:54:08;3.30;;;2.90;;
21430;SDS011;10876;49.038;10.608;2023-05-10T07:56:36;3.75;;;3.05;;
21430;SDS011;10876;49.038;10.608;2023-05-10T07:59:03;7.15;;;3.08;;
21430;SDS011;10876;49.038;10.608;2023-05-10T08:01:31;5.60;;;2.83;;
21430;SDS011;10876;49.038;10.608;2023-05-10T08:03:59;16.20;;;5.40;;
21430;SDS011;10876;49.038;10.608;2023-05-10T08:06:26;3.95;;;2.70;;
21430;SDS011;10876;49.038;10.608;2023-05-10T08:08:54;4.95;;;2.38;;
21430;SDS011;10876;49.038;10.608;2023-05-10T08:11:21;5.65;;;2.20;;
21430;SDS011;10876;49.038;10.608;2023-05-10T08:13:49;6.05;;;2.40;;
21430;SDS011;10876;49.038;10.608;2023-05-10T08:16:17;2.55;;;1.95;;
21430;SDS011;10876;49.038;10.608;2023-05-10T08:18:44;6.03;;;2.45;;
21430;SDS011;10876;49.038;10.608;2023-05-10T08:21:11;2.65;;;2.00;;
21430;SDS011;10876;49.038;10.608;2023-05-10T08:23:39;3.00;;;2.13;;
21430;SDS011;10876;49.038;10.608;2023-05-10T08:26:06;2.75;;;1.50;;
21430;SDS011;10876;49.038;10.608;2023-05-10T08:28:33;2.42;;;1.80;;
21430;SDS011;10876;49.038;10.608;2023-05-10T08:31:01;3.15;;;1.70;;
21430;SDS011;10876;49.038;10.608;2023-05-10T08:33:27;3.55;;;2.15;;
21430;SDS011;10876;49.038;10.608;2023-05-10T08:35:54;3.03;;;2.42;;
21430;SDS011;10876;49.038;10.608;2023-05-10T08:38:21;2.83;;;1.67;;
21430;SDS011;10876;49.038;10.608;2023-05-10T08:40:48;3.10;;;2.13;;
21430;SDS011;10876;49.038;10.608;2023-05-10T08:43:15;2.22;;;1.73;;
21430;SDS011;10876;49.038;10.608;2023-05-10T08:45:43;2.45;;;1.90;;
21430;SDS011;10876;49.038;10.608;2023-05-10T08:48:13;3.03;;;2.17;;
21430;SDS011;10876;49.038;10.608;2023-05-10T08:50:41;2.30;;;2.03;;
21430;SDS011;10876;49.038;10.608;2023-05-10T08:53:09;1.88;;;1.55;;
21430;SDS011;10876;49.038;10.608;2023-05-10T08:55:37;2.72;;;2.17;;
21430;SDS011;10876;49.038;10.608;2023-05-10T08:58:05;2.45;;;2.03;;
21430;SDS011;10876;49.038;10.608;2023-05-10T09:00:32;3.10;;;1.98;;
21430;SDS011;10876;49.038;10.608;2023-05-10T09:03:00;3.88;;;1.90;;
21430;SDS011;10876;49.038;10.608;2023-05-10T09:05:29;2.63;;;1.98;;
21430;SDS011;10876;49.038;10.608;2023-05-10T09:07:55;3.72;;;2.00;;
21430;SDS011;10876;49.038;10.608;2023-05-10T09:10:24;3.25;;;1.88;;
21430;SDS011;10876;49.038;10.608;2023-05-10T09:12:52;2.00;;;1.70;;
21430;SDS011;10876;49.038;10.608;2023-05-10T09:15:20;2.97;;;1.83;;
21430;SDS011;10876;49.038;10.608;2023-05-10T09:17:46;6.15;;;2.10;;
21430;SDS011;10876;49.038;10.608;2023-05-10T09:20:15;3.38;;;1.73;;
21430;SDS011;10876;49.038;10.608;2023-05-10T09:22:43;5.00;;;1.90;;
21430;SDS011;10876;49.038;10.608;2023-05-10T09:25:11;1.75;;;1.40;;
21430;SDS011;10876;49.038;10.608;2023-05-10T09:27:39;1.65;;;1.45;;
21430;SDS011;10876;49.038;10.608;2023-05-10T09:30:10;2.42;;;1.45;;
21430;SDS011;10876;49.038;10.608;2023-05-10T09:32:42;1.65;;;1.40;;
21430;SDS011;10876;49.038;10.608;2023-05-10T09:35:11;3.83;;;1.30;;
21430;SDS011;10876;49.038;10.608;2023-05-10T09:37:38;1.52;;;1.23;;
21430;SDS011;10876;49.038;10.608;2023-05-10T09:40:11;1.42;;;1.10;;
21430;SDS011;10876;49.038;10.608;2023-05-10T09:42:38;3.15;;;1.00;;
21430;SDS011;10876;49.038;10.608;2023-05-10T09:45:06;1.40;;;1.10;;
21430;SDS011;10876;49.038;10.608;2023-05-10T09:47:34;1.38;;;1.27;;
21430;SDS011;10876;49.038;10.608;2023-05-10T09:50:01;1.20;;;1.10;;
21430;SDS011;10876;49.038;10.608;2023-05-10T09:52:30;1.23;;;1.13;;
21430;SDS011;10876;49.038;10.608;2023-05-10T09:54:57;1.23;;;1.10;;
21430;SDS011;10876;49.038;10.608;2023-05-10T09:57:25;2.63;;;1.20;;
21430;SDS011;10876;49.038;10.608;2023-05-10T09:59:52;1.88;;;1.15;;
21430;SDS011;10876;49.038;10.608;2023-05-10T10:02:20;1.23;;;1.10;;
21430;SDS011;10876;49.038;10.608;2023-05-10T10:04:48;2.75;;;1.30;;
21430;SDS011;10876;49.038;10.608;2023-05-10T10:07:17;1.45;;;1.20;;
21430;SDS011;10876;49.038;10.608;2023-05-10T10:09:50;1.40;;;1.30;;
21430;SDS011;10876;49.038;10.608;2023-05-10T10:12:18;1.20;;;1.08;;
21430;SDS011;10876;49.038;10.608;2023-05-10T10:14:47;2.55;;;1.15;;
21430;SDS011;10876;49.038;10.608;2023-05-10T10:17:15;1.52;;;1.20;;
21430;SDS011;10876;49.038;10.608;2023-05-10T10:19:42;1.45;;;1.17;;
21430;SDS011;10876;49.038;10.608;2023-05-10T10:22:09;1.40;;;1.10;;
21430;SDS011;10876;49.038;10.608;2023-05-10T10:24:37;1.50;;;1.30;;
21430;SDS011;10876;49.038;10.608;2023-05-10T10:27:15;2.70;;;1.20;;
21430;SDS011;10876;49.038;10.608;2023-05-10T10:29:56;1.25;;;1.00;;
21430;SDS011;10876;49.038;10.608;2023-05-10T10:32:29;2.20;;;1.40;;
21430;SDS011;10876;49.038;10.608;2023-05-10T10:35:04;1.70;;;1.40;;
21430;SDS011;10876;49.038;10.608;2023-05-10T10:40:23;3.13;;;1.10;;
21430;SDS011;10876;49.038;10.608;2023-05-10T10:42:53;3.45;;;1.30;;
21430;SDS011;10876;49.038;10.608;2023-05-10T10:45:23;2.55;;;1.52;;
21430;SDS011;10876;49.038;10.608;2023-05-10T10:50:51;1.50;;;1.20;;
21430;SDS011;10876;49.038;10.608;2023-05-10T10:53:23;1.70;;;1.30;;
21430;SDS011;10876;49.038;10.608;2023-05-10T10:55:53;1.83;;;1.20;;
21430;SDS011;10876;49.038;10.608;2023-05-10T10:58:31;1.92;;;1.00;;
21430;SDS011;10876;49.038;10.608;2023-05-10T11:01:15;1.73;;;1.00;;
21430;SDS011;10876;49.038;10.608;2023-05-10T11:03:54;2.35;;;0.90;;
21430;SDS011;10876;49.038;10.608;2023-05-10T11:06:43;1.30;;;1.10;;
21430;SDS011;10876;49.038;10.608;2023-05-10T11:09:11;1.77;;;1.00;;
21430;SDS011;10876;49.038;10.608;2023-05-10T11:11:48;1.83;;;0.98;;
21430;SDS011;10876;49.038;10.608;2023-05-10T11:14:19;1.73;;;1.20;;
21430;SDS011;10876;49.038;10.608;2023-05-10T11:16:48;1.73;;;0.90;;
21430;SDS011;10876;49.038;10.608;2023-05-10T11:19:16;0.68;;;0.68;;
21430;SDS011;10876;49.038;10.608;2023-05-10T11:21:44;1.95;;;1.00;;
21430;SDS011;10876;49.038;10.608;2023-05-10T11:24:14;2.10;;;0.85;;
21430;SDS011;10876;49.038;10.608;2023-05-10T11:26:42;1.00;;;0.80;;
21430;SDS011;10876;49.038;10.608;2023-05-10T11:29:09;1.27;;;0.80;;
21430;SDS011;10876;49.038;10.608;2023-05-10T11:31:41;1.40;;;0.90;;
21430;SDS011;10876;49.038;10.608;2023-05-10T11:34:10;1.05;;;0.90;;
21430;SDS011;10876;49.038;10.608;2023-05-10T11:36:37;1.00;;;0.80;;
21430;SDS011;10876;49.038;10.608;2023-05-10T11:39:04;0.98;;;0.88;;
21430;SDS011;10876;49.038;10.608;2023-05-10T11:41:31;1.15;;;0.90;;
21430;SDS011;10876;49.038;10.608;2023-05-10T11:43:58;1.55;;;1.00;;
21430;SDS011;10876;49.038;10.608;2023-05-10T11:46:26;2.58;;;0.93;;
21430;SDS011;10876;49.038;10.608;2023-05-10T11:48:55;1.10;;;0.80;;
21430;SDS011;10876;49.038;10.608;2023-05-10T11:51:27;1.73;;;0.75;;
21430;SDS011;10876;49.038;10.608;2023-05-10T11:53:54;0.68;;;0.68;;
21430;SDS011;10876;49.038;10.608;2023-05-10T11:56:22;1.00;;;0.90;;
21430;SDS011;10876;49.038;10.608;2023-05-10T11:58:54;2.03;;;1.10;;
21430;SDS011;10876;49.038;10.608;2023-05-10T12:01:22;1.35;;;0.93;;
21430;SDS011;10876;49.038;10.608;2023-05-10T12:03:50;1.60;;;1.05;;
21430;SDS011;10876;49.038;10.608;2023-05-10T12:06:18;0.95;;;0.90;;
21430;SDS011;10876;49.038;10.608;2023-05-10T12:08:47;2.20;;;1.40;;
21430;SDS011;10876;49.038;10.608;2023-05-10T12:11:17;3.70;;;1.50;;
21430;SDS011;10876;49.038;10.608;2023-05-10T12:13:44;1.85;;;1.40;;
21430;SDS011;10876;49.038;10.608;2023-05-10T12:18:39;2.47;;;1.20;;
21430;SDS011;10876;49.038;10.608;2023-05-10T12:21:06;1.20;;;1.10;;
21430;SDS011;10876;49.038;10.608;2023-05-10T12:23:33;4.75;;;1.40;;
21430;SDS011;10876;49.038;10.608;2023-05-10T12:26:02;1.38;;;1.27;;
21430;SDS011;10876;49.038;10.608;2023-05-10T12:28:30;1.27;;;1.17;;
21430;SDS011;10876;49.038;10.608;2023-05-10T12:30:58;1.85;;;1.30;;
21430;SDS011;10876;49.038;10.608;2023-05-10T12:33:25;1.27;;;1.10;;
21430;SDS011;10876;49.038;10.608;2023-05-10T12:35:52;1.77;;;1.30;;
21430;SDS011;10876;49.038;10.608;2023-05-10T12:38:28;2.45;;;1.58;;
21430;SDS011;10876;49.038;10.608;2023-05-10T12:40:56;1.98;;;1.40;;
21430;SDS011;10876;49.038;10.608;2023-05-10T12:43:25;2.80;;;1.63;;
21430;SDS011;10876;49.038;10.608;2023-05-10T12:45:51;2.97;;;1.65;;
21430;SDS011;10876;49.038;10.608;2023-05-10T12:48:18;4.63;;;1.90;;
21430;SDS011;10876;49.038;10.608;2023-05-10T12:50:45;2.67;;;2.15;;
21430;SDS011;10876;49.038;10.608;2023-05-10T12:53:12;2.35;;;2.15;;
21430;SDS011;10876;49.038;10.608;2023-05-10T12:55:40;2.20;;;2.00;;
21430;SDS011;10876;49.038;10.608;2023-05-10T12:58:07;2.55;;;2.08;;
21430;SDS011;10876;49.038;10.608;2023-05-10T13:00:35;5.75;;;2.28;;
21430;SDS011;10876;49.038;10.608;2023-05-10T13:03:03;2.45;;;2.10;;
21430;SDS011;10876;49.038;10.608;2023-05-10T13:05:30;4.57;;;2.10;;
21430;SDS011;10876;49.038;10.608;2023-05-10T13:07:56;2.20;;;1.90;;
21430;SDS011;10876;49.038;10.608;2023-05-10T13:10:23;2.83;;;2.22;;
21430;SDS011;10876;49.038;10.608;2023-05-10T13:12:50;2.65;;;2.35;;
21430;SDS011;10876;49.038;10.608;2023-05-10T13:15:17;3.97;;;2.15;;
21430;SDS011;10876;49.038;10.608;2023-05-10T13:17:45;2.15;;;1.73;;
21430;SDS011;10876;49.038;10.608;2023-05-10T13:20:11;2.42;;;2.00;;
21430;SDS011;10876;49.038;10.608;2023-05-10T13:22:38;2.17;;;1.90;;
21430;SDS011;10876;49.038;10.608;2023-05-10T13:25:05;3.33;;;1.90;;
21430;SDS011;10876;49.038;10.608;2023-05-10T13:27:32;2.15;;;1.80;;
21430;SDS011;10876;49.038;10.608;2023-05-10T13:29:58;1.55;;;1.40;;
21430;SDS011;10876;49.038;10.608;2023-05-10T13:32:25;1.60;;;1.33;;
21430;SDS011;10876;49.038;10.608;2023-05-10T13:34:53;1.48;;;1.20;;
21430;SDS011;10876;49.038;10.608;2023-05-10T13:37:20;1.80;;;1.45;;
21430;SDS011;10876;49.038;10.608;2023-05-10T13:39:47;1.63;;;1.52;;
21430;SDS011;10876;49.038;10.608;2023-05-10T13:42:14;1.67;;;1.40;;
21430;SDS011;10876;49.038;10.608;2023-05-10T13:44:41;1.95;;;1.60;;
21430;SDS011;10876;49.038;10.608;2023-05-10T13:47:08;2.42;;;1.67;;
21430;SDS011;10876;49.038;10.608;2023-05-10T13:49:35;2.60;;;1.70;;
21430;SDS011;10876;49.038;10.608;2023-05-10T13:52:03;2.50;;;2.03;;
21430;SDS011;10876;49.038;10.608;2023-05-10T13:54:32;4.45;;;2.47;;
21430;SDS011;10876;49.038;10.608;2023-05-10T13:56:58;2.17;;;1.80;;
21430;SDS011;10876;49.038;10.608;2023-05-10T13:59:25;2.08;;;1.70;;
21430;SDS011;10876;49.038;10.608;2023-05-10T14:01:52;5.38;;;1.65;;
21430;SDS011;10876;49.038;10.608;2023-05-10T14:04:19;1.80;;;1.70;;
21430;SDS011;10876;49.038;10.608;2023-05-10T14:06:45;1.75;;;1.55;;
21430;SDS011;10876;49.038;10.608;2023-05-10T14:09:13;2.20;;;1.30;;
21430;SDS011;10876;49.038;10.608;2023-05-10T14:11:40;1.30;;;1.20;;
21430;SDS011;10876;49.038;10.608;2023-05-10T14:14:08;2.35;;;1.67;;
21430;SDS011;10876;49.038;10.608;2023-05-10T14:16:35;2.40;;;1.70;;
21430;SDS011;10876;49.038;10.608;2023-05-10T14:19:01;2.47;;;1.63;;
21430;SDS011;10876;49.038;10.608;2023-05-10T14:21:29;1.77;;;1.30;;
21430;SDS011;10876;49.038;10.608;2023-05-10T14:23:55;2.38;;;1.23;;
21430;SDS011;10876;49.038;10.608;2023-05-10T14:26:24;3.50;;;1.25;;
21430;SDS011;10876;49.038;10.608;2023-05-10T14:28:51;1.25;;;1.00;;
21430;SDS011;10876;49.038;10.608;2023-05-10T14:31:18;5.18;;;1.48;;
21430;SDS011;10876;49.038;10.608;2023-05-10T14:33:45;1.40;;;1.30;;
21430;SDS011;10876;49.038;10.608;2023-05-10T14:36:12;2.58;;;0.90;;
21430;SDS011;10876;49.038;10.608;2023-05-10T14:38:39;1.02;;;0.90;;
21430;SDS011;10876;49.038;10.608;2023-05-10T14:41:05;1.42;;;1.08;;
21430;SDS011;10876;49.038;10.608;2023-05-10T14:43:34;0.98;;;0.82;;
21430;SDS011;10876;49.038;10.608;2023-05-10T14:46:01;1.63;;;1.10;;
21430;SDS011;10876;49.038;10.608;2023-05-10T14:48:28;1.25;;;0.90;;
21430;SDS011;10876;49.038;10.608;2023-05-10T14:50:55;4.95;;;1.23;;
21430;SDS011;10876;49.038;10.608;2023-05-10T14:53:21;2.25;;;0.90;;
21430;SDS011;10876;49.038;10.608;2023-05-10T14:55:48;1.27;;;1.10;;
21430;SDS011;10876;49.038;10.608;2023-05-10T14:58:15;1.27;;;1.10;;
21430;SDS011;10876;49.038;10.608;2023-05-10T15:00:43;1.10;;;1.00;;
21430;SDS011;10876;49.038;10.608;2023-05-10T15:03:10;1.17;;;1.02;;
21430;SDS011;10876;49.038;10.608;2023-05-10T15:05:37;1.42;;;1.10;;
21430;SDS011;10876;49.038;10.608;2023-05-10T15:08:04;3.00;;;1.70;;
21430;SDS011;10876;49.038;10.608;2023-05-10T15:10:31;7.70;;;4.82;;
21430;SDS011;10876;49.038;10.608;2023-05-10T15:12:59;4.45;;;3.13;;
21430;SDS011;10876;49.038;10.608;2023-05-10T15:15:26;20.38;;;10.77;;